Malmesbury, United Kingdom
Current Conditions -  °F | °C
As of 6:58 PM on Friday 28 Nov 2014 (Local Time) from EGVA Reporting Station
Scattered Clouds Scattered Clouds  
Wind Chill: 45°   Ceiling: Unl
Heat Index: 50°   Visibility: 6mi
Dew Point: 47°   Wind: 12mph
Humidity: 92%   Direction: 60°ENE
Pressure: 29.66"   Gusts: NA
Location:  51.58°N, 2.1°W
Report Text: EGVA 281858Z AUTO 06010KT 9999 SCT012 10/09 A2966 RMK AO2 SLP048 T00980086 $
Loading
Personal Weather Stations






























Interactive Weather Map New forecast layout! Learn more

10-Day Weather Forecast

Advertisements
Track Severe Weather on mobile